1CL3 weather

Alameda County Parking Garage Heliport
Oakland, California, United States

Public forecast

Using degrees Fahrenheit for public forecast. Weather courtesy of forecast.io.

METAR (pilot weather report)

Closest report is Metropolitan Oakland International Airport, 5.2 nm (9.6 km) SSE. Retrieved 2019/06/20 12:53 UTC (12 minutes ago):

KOAK 201253Z 22014KT 10SM OVC018 16/12 A2989 RMK AO2 SLP120 T01610122

TAF (pilot weather forecast)

Closest forecast is Metropolitan Oakland International Airport, 5.2 nm (9.6 km) SSE. Retrieved 2019/06/20 12:40 UTC (25 minutes ago):

TAF KOAK 201138Z 2012/2118 23013KT P6SM BKN019 BKN023 FM201800 27014KT P6SM FEW010 FM210500 28007KT P6SM BKN015 FM211730 27014KT P6SM FEW015